Time;durP1;ratioP1;P1;durP2;ratioP2;P2;SDS_P1;SDS_P2;PMS_P1;PMS_P2;Temp;Humidity;BMP_temperature;BMP_pressure;BME280_temperature;BME280_humidity;BME280_pressure;Samples;Min_cycle;Max_cycle;Signal;HPM_P1;HPM_P2
2023/05/10 00:01:15;;;;;;;0.00;0.00;;;11.30;99.90;;;;;;5016527;28;20557;-78
2023/05/10 00:03:46;;;;;;;0.00;0.00;;;11.30;99.90;;;;;;5015107;28;20112;-78
2023/05/10 00:06:21;;;;;;;0.00;0.00;;;11.40;99.90;;;;;;5017362;28;20075;-78
2023/05/10 00:09:01;;;;;;;0.00;0.00;;;11.30;99.90;;;;;;5021057;28;20608;-78
2023/05/10 00:11:28;;;;;;;0.00;0.00;;;11.40;99.90;;;;;;5017428;28;20064;-79
2023/05/10 00:13:54;;;;;;;;;;;11.50;99.90;;;;;;5017732;28;20026;-79
2023/05/10 00:16:25;;;;;;;0.00;0.00;;;11.40;99.90;;;;;;5018689;28;20357;-78
2023/05/10 00:18:54;;;;;;;0.00;0.00;;;11.40;99.90;;;;;;5023212;28;20052;-78
2023/05/10 00:21:21;;;;;;;0.00;0.00;;;11.40;99.90;;;;;;5006476;28;20542;-78
2023/05/10 00:23:48;;;;;;;0.00;0.00;;;11.80;99.90;;;;;;5017511;28;20037;-77
2023/05/10 00:26:24;;;;;;;0.00;0.00;;;11.40;99.90;;;;;;5021519;28;20108;-78
2023/05/10 00:29:02;;;;;;;0.00;0.00;;;11.40;99.90;;;;;;5020002;28;20553;-78
2023/05/10 00:31:30;;;;;;;0.00;0.00;;;11.30;99.90;;;;;;5023851;28;20678;-78
2023/05/10 00:33:57;;;;;;;0.00;0.00;;;11.20;99.90;;;;;;5022327;28;20025;-79
2023/05/10 00:36:25;;;;;;;0.10;0.10;;;11.20;99.90;;;;;;5021858;28;20097;-78
2023/05/10 00:39:00;;;;;;;0.00;0.00;;;11.20;99.90;;;;;;5024754;28;20021;-78
2023/05/10 00:41:32;;;;;;;0.00;0.00;;;11.10;99.90;;;;;;5021460;28;20030;-79
2023/05/10 00:43:59;;;;;;;0.00;0.00;;;11.20;99.90;;;;;;5025342;28;20018;-79
2023/05/10 00:46:26;;;;;;;0.00;0.00;;;11.10;99.90;;;;;;5021391;28;20116;-79
2023/05/10 00:48:56;;;;;;;0.00;0.00;;;11.00;99.90;;;;;;5022547;28;20033;-79
2023/05/10 00:51:24;;;;;;;0.00;0.00;;;11.00;99.90;;;;;;5029226;28;20053;-78
2023/05/10 00:54:05;;;;;;;0.00;0.00;;;11.00;99.90;;;;;;5025615;28;20052;-78
2023/05/10 00:56:31;;;;;;;0.00;0.00;;;11.00;99.90;;;;;;5021991;28;20584;-78
2023/05/10 00:58:57;;;;;;;0.10;0.10;;;11.10;99.90;;;;;;5024667;28;20041;-78
2023/05/10 01:01:23;;;;;;;;;;;11.00;99.90;;;;;;5023656;28;20049;-78
2023/05/10 01:03:55;;;;;;;0.00;0.00;;;10.90;99.90;;;;;;5020821;28;19936;-78
2023/05/10 01:06:23;;;;;;;0.00;0.00;;;10.90;99.90;;;;;;5025197;28;20091;-78
2023/05/10 01:08:54;;;;;;;0.00;0.00;;;10.90;99.90;;;;;;5022702;28;20076;-79
2023/05/10 01:11:21;;;;;;;0.00;0.00;;;10.90;99.90;;;;;;5003891;28;20025;-78
2023/05/10 01:13:57;;;;;;;0.00;0.00;;;11.00;99.90;;;;;;5020151;28;20690;-78
2023/05/10 01:16:26;;;;;;;0.00;0.00;;;10.80;99.90;;;;;;5020682;28;20026;-78
2023/05/10 01:18:59;;;;;;;0.00;0.00;;;10.80;99.90;;;;;;5027150;28;20482;-78
2023/05/10 01:22:04;;;;;;;0.00;0.00;;;10.70;99.90;;;;;;5025286;28;20033;-78
2023/05/10 01:25:07;;;;;;;0.00;0.00;;;10.70;99.90;;;;;;4959861;28;20498;-78
2023/05/10 01:28:00;;;;;;;0.00;0.00;;;10.60;99.90;;;;;;5003815;28;20025;-79
2023/05/10 01:30:46;;;;;;;0.00;0.00;;;10.70;99.90;;;;;;5007298;28;20030;-78
2023/05/10 01:33:28;;;;;;;0.00;0.00;;;10.60;99.90;;;;;;5020420;28;20022;-78
2023/05/10 01:36:13;;;;;;;0.00;0.00;;;10.60;99.90;;;;;;5023041;28;20045;-78
2023/05/10 01:39:00;;;;;;;0.00;0.00;;;10.60;99.90;;;;;;5018232;28;20021;-78
2023/05/10 01:44:50;;;;;;;0.00;0.00;;;10.70;99.90;;;;;;5016305;28;22040;-78
2023/05/10 01:47:50;;;;;;;0.00;0.00;;;10.60;99.90;;;;;;5004774;28;20022;-78
2023/05/10 01:50:24;;;;;;;0.00;0.00;;;10.60;99.90;;;;;;5015776;28;20029;-78
2023/05/10 01:52:54;;;;;;;0.00;0.00;;;10.60;99.90;;;;;;5020021;28;20033;-78
2023/05/10 01:55:27;;;;;;;0.00;0.00;;;10.50;99.90;;;;;;5021933;28;20026;-78
2023/05/10 01:58:12;;;;;;;0.00;0.00;;;10.50;99.90;;;;;;5019842;28;20029;-79
2023/05/10 02:00:48;;;;;;;0.00;0.00;;;10.40;99.90;;;;;;5021578;28;20383;-78
2023/05/10 02:03:15;;;;;;;0.00;0.00;;;10.40;99.90;;;;;;5020970;28;20018;-78
2023/05/10 02:05:44;;;;;;;0.00;0.00;;;10.20;99.90;;;;;;5020607;28;20108;-78
2023/05/10 02:08:14;;;;;;;0.00;0.00;;;10.30;99.90;;;;;;5019799;28;20024;-78
2023/05/10 02:10:42;;;;;;;0.00;0.00;;;10.30;99.90;;;;;;5024752;28;20013;-78
2023/05/10 02:13:10;;;;;;;0.00;0.00;;;10.30;99.90;;;;;;5018164;28;20083;-78
2023/05/10 02:15:36;;;;;;;0.00;0.00;;;10.30;99.90;;;;;;5021265;28;20045;-78
2023/05/10 02:18:06;;;;;;;0.00;0.00;;;10.20;99.90;;;;;;5024485;28;20029;-78
2023/05/10 02:20:34;;;;;;;0.00;0.00;;;10.10;99.90;;;;;;5001964;28;20053;-78
2023/05/10 02:23:02;;;;;;;0.00;0.00;;;10.00;99.90;;;;;;5020767;28;20108;-78
2023/05/10 02:25:32;;;;;;;0.00;0.00;;;10.20;99.90;;;;;;5004953;28;20043;-78
2023/05/10 02:28:01;;;;;;;0.00;0.00;;;10.10;99.90;;;;;;5018324;28;20024;-78
2023/05/10 02:30:28;;;;;;;0.00;0.00;;;10.20;99.90;;;;;;5020122;28;20028;-78
2023/05/10 02:32:57;;;;;;;0.00;0.00;;;10.10;99.90;;;;;;5018742;28;21397;-78
2023/05/10 02:35:28;;;;;;;0.00;0.00;;;10.00;99.90;;;;;;5020485;28;20021;-78
2023/05/10 02:37:57;;;;;;;0.00;0.00;;;10.00;99.90;;;;;;5018290;28;21047;-78
2023/05/10 02:40:23;;;;;;;0.00;0.00;;;9.90;99.90;;;;;;5019201;28;20032;-78
2023/05/10 02:42:52;;;;;;;;;;;10.00;99.90;;;;;;5017183;28;20021;-78
2023/05/10 02:45:21;;;;;;;0.00;0.00;;;9.90;99.90;;;;;;5021160;28;19912;-78
2023/05/10 02:47:48;;;;;;;0.00;0.00;;;9.90;99.90;;;;;;5018514;28;20045;-78
2023/05/10 02:50:14;;;;;;;0.00;0.00;;;10.00;99.90;;;;;;5019234;28;20026;-79
2023/05/10 02:52:51;;;;;;;0.00;0.00;;;10.00;99.90;;;;;;5018831;28;20348;-78
2023/05/10 02:55:19;;;;;;;;;;;10.00;99.90;;;;;;5003416;28;20030;-79
2023/05/10 02:57:58;;;;;;;0.00;0.00;;;10.00;99.90;;;;;;5023692;28;19909;-78
2023/05/10 03:00:26;;;;;;;0.00;0.00;;;9.90;99.90;;;;;;5020183;28;20033;-79
2023/05/10 03:02:52;;;;;;;0.00;0.00;;;9.80;99.90;;;;;;5023487;28;20069;-78
2023/05/10 03:05:20;;;;;;;0.00;0.00;;;9.70;99.90;;;;;;5022633;28;20560;-78
2023/05/10 03:07:47;;;;;;;0.00;0.00;;;9.80;99.90;;;;;;5022298;28;20033;-79
2023/05/10 03:10:13;;;;;;;0.00;0.00;;;9.80;99.90;;;;;;5024161;28;20021;-78
2023/05/10 03:13:05;;;;;;;0.00;0.00;;;9.80;99.90;;;;;;5019186;28;20025;-78
2023/05/10 03:15:42;;;;;;;0.00;0.00;;;9.80;99.90;;;;;;5022310;28;20100;-78
2023/05/10 03:18:18;;;;;;;0.00;0.00;;;9.70;99.90;;;;;;5015888;28;20028;-77
2023/05/10 03:20:51;;;;;;;0.00;0.00;;;9.70;99.90;;;;;;5022584;28;20101;-78
2023/05/10 03:23:22;;;;;;;0.00;0.00;;;9.60;99.90;;;;;;5017647;28;20032;-78
2023/05/10 03:25:50;;;;;;;0.00;0.00;;;9.60;99.90;;;;;;5019166;28;20021;-79
2023/05/10 03:28:17;;;;;;;0.00;0.00;;;9.40;99.90;;;;;;5022897;28;20021;-78
2023/05/10 03:30:46;;;;;;;0.00;0.00;;;9.40;99.90;;;;;;5005698;28;20101;-78
2023/05/10 03:33:12;;;;;;;0.00;0.00;;;9.40;99.90;;;;;;5018249;28;20048;-78
2023/05/10 03:35:38;;;;;;;;;;;9.40;99.90;;;;;;5020066;28;20029;-78
2023/05/10 03:38:04;;;;;;;0.55;0.13;;;9.40;99.90;;;;;;5005503;28;19916;-78
2023/05/10 03:40:34;;;;;;;0.00;0.00;;;9.40;99.90;;;;;;5003704;28;20025;-78
2023/05/10 03:43:02;;;;;;;0.00;0.00;;;9.40;99.90;;;;;;5022786;28;20104;-78
2023/05/10 03:45:28;;;;;;;0.00;0.00;;;9.40;99.90;;;;;;5018140;28;20066;-78
2023/05/10 03:47:58;;;;;;;0.00;0.00;;;9.40;99.90;;;;;;5022979;28;20041;-78
2023/05/10 03:50:24;;;;;;;0.00;0.00;;;9.40;99.90;;;;;;5018069;28;20037;-78
2023/05/10 03:52:52;;;;;;;0.00;0.00;;;9.40;99.90;;;;;;5022621;28;20026;-79
2023/05/10 03:55:19;;;;;;;0.00;0.00;;;9.40;99.90;;;;;;5016727;28;20410;-78
2023/05/10 03:58:13;;;;;;;0.00;0.00;;;9.50;99.90;;;;;;5017192;28;20028;-78
2023/05/10 04:00:43;;;;;;;0.00;0.00;;;9.50;99.90;;;;;;5015393;28;20017;-78
2023/05/10 04:03:12;;;;;;;0.00;0.00;;;9.60;99.90;;;;;;5023485;28;20024;-78
2023/05/10 04:05:47;;;;;;;0.00;0.00;;;9.70;99.90;;;;;;5018754;28;20168;-78
2023/05/10 04:08:16;;;;;;;0.00;0.00;;;9.70;99.90;;;;;;5023150;28;21486;-78
2023/05/10 04:10:43;;;;;;;0.00;0.00;;;9.70;99.90;;;;;;5026313;28;20026;-78
2023/05/10 04:13:17;;;;;;;0.00;0.00;;;9.80;99.90;;;;;;5007788;28;20108;-78
2023/05/10 04:15:43;;;;;;;0.00;0.00;;;9.90;99.90;;;;;;5021811;28;20022;-78
2023/05/10 04:18:09;;;;;;;0.00;0.00;;;10.10;99.90;;;;;;5024555;28;20112;-79
2023/05/10 04:20:41;;;;;;;0.00;0.00;;;10.20;99.90;;;;;;5022101;28;20025;-78
2023/05/10 04:23:07;;;;;;;0.00;0.00;;;10.20;99.90;;;;;;5008581;28;20136;-78
2023/05/10 04:25:35;;;;;;;0.00;0.00;;;10.30;99.90;;;;;;5023380;28;20022;-78
2023/05/10 04:28:02;;;;;;;0.00;0.00;;;10.40;99.90;;;;;;5024480;28;20022;-81
2023/05/10 04:30:29;;;;;;;0.10;0.10;;;10.40;99.90;;;;;;5024129;28;20075;-74
2023/05/10 04:32:55;;;;;;;0.00;0.00;;;10.40;99.90;;;;;;5023436;28;20049;-76
2023/05/10 04:35:21;;;;;;;;;;;10.50;99.90;;;;;;5018784;28;20033;-76
2023/05/10 04:37:47;;;;;;;0.00;0.00;;;10.50;99.90;;;;;;5019344;28;20274;-76
2023/05/10 04:40:14;;;;;;;;;;;10.60;99.90;;;;;;5018501;28;20661;-76
2023/05/10 04:42:41;;;;;;;0.03;0.03;;;10.60;99.90;;;;;;5002007;28;19911;-75
2023/05/10 04:45:06;;;;;;;;;;;10.70;99.90;;;;;;5016909;28;20072;-75
2023/05/10 04:47:33;;;;;;;0.00;0.00;;;10.70;99.90;;;;;;5015076;28;19917;-75
2023/05/10 04:50:00;;;;;;;;;;;10.80;99.90;;;;;;5021705;28;20386;-75
2023/05/10 04:52:26;;;;;;;0.00;0.00;;;10.90;99.90;;;;;;5021144;28;20277;-75
2023/05/10 04:54:51;;;;;;;0.00;0.00;;;11.10;99.90;;;;;;5019587;28;20021;-75
2023/05/10 04:57:18;;;;;;;0.03;0.03;;;11.20;99.90;;;;;;5025688;28;20029;-75
2023/05/10 04:59:44;;;;;;;;;;;11.30;99.90;;;;;;5005543;28;20029;-75
2023/05/10 05:02:12;;;;;;;0.00;0.00;;;11.50;99.90;;;;;;5017053;28;19911;-75
2023/05/10 05:04:39;;;;;;;0.00;0.00;;;11.70;99.90;;;;;;5017835;28;20022;-75
2023/05/10 05:07:09;;;;;;;;;;;11.80;99.90;;;;;;5022193;28;20025;-75
2023/05/10 05:09:36;;;;;;;0.00;0.00;;;12.00;99.90;;;;;;5021931;28;20378;-75
2023/05/10 05:12:02;;;;;;;0.00;0.00;;;12.10;99.90;;;;;;5018673;28;20022;-75
2023/05/10 05:14:30;;;;;;;0.00;0.00;;;12.20;99.90;;;;;;5020926;28;20426;-75
2023/05/10 05:16:56;;;;;;;0.35;0.35;;;12.40;99.90;;;;;;5020286;28;20041;-75
2023/05/10 05:19:34;;;;;;;0.00;0.00;;;12.50;99.90;;;;;;5017783;28;20166;-76
2023/05/10 05:21:59;;;;;;;0.00;0.00;;;12.50;99.90;;;;;;5018721;28;20025;-76
2023/05/10 05:24:26;;;;;;;0.40;0.40;;;12.80;99.90;;;;;;5020663;28;20052;-75
2023/05/10 05:26:52;;;;;;;;;;;13.00;99.90;;;;;;5024827;28;20483;-75
2023/05/10 05:29:17;;;;;;;0.00;0.00;;;13.10;99.90;;;;;;5017331;28;19920;-76
2023/05/10 05:31:44;;;;;;;0.00;0.00;;;13.20;99.90;;;;;;5020784;28;20032;-75
2023/05/10 05:34:13;;;;;;;;;;;13.30;99.90;;;;;;5021041;28;20025;-76
2023/05/10 05:36:41;;;;;;;0.00;0.00;;;13.30;99.90;;;;;;5022037;28;19960;-77
2023/05/10 05:39:09;;;;;;;0.10;0.10;;;13.40;99.90;;;;;;5020958;28;20029;-76
2023/05/10 05:41:36;;;;;;;0.00;0.00;;;13.60;99.90;;;;;;5024808;28;20826;-76
2023/05/10 05:44:01;;;;;;;0.00;0.00;;;13.70;99.90;;;;;;5002623;28;20040;-76
2023/05/10 05:46:27;;;;;;;0.00;0.00;;;14.00;99.90;;;;;;5020496;28;20026;-75
2023/05/10 05:48:52;;;;;;;0.00;0.00;;;14.10;99.90;;;;;;5019956;28;20022;-76
2023/05/10 05:51:20;;;;;;;0.00;0.00;;;14.30;99.90;;;;;;5004123;28;20056;-76
2023/05/10 05:53:48;;;;;;;0.00;0.00;;;14.80;99.90;;;;;;5007762;28;21068;-76
2023/05/10 05:56:24;;;;;;;0.00;0.00;;;15.40;99.90;;;;;;5021203;28;20033;-76
2023/05/10 05:59:00;;;;;;;0.00;0.00;;;16.00;99.90;;;;;;5027162;28;20021;-76
2023/05/10 06:01:33;;;;;;;0.00;0.00;;;16.40;99.90;;;;;;5018754;28;20029;-77
2023/05/10 06:04:05;;;;;;;0.00;0.00;;;17.30;99.90;;;;;;5017643;28;20033;-76
2023/05/10 06:06:33;;;;;;;0.00;0.00;;;17.60;98.80;;;;;;5020172;28;20036;-75
2023/05/10 06:09:00;;;;;;;0.00;0.00;;;18.80;96.50;;;;;;5021603;28;20022;-76
2023/05/10 06:11:26;;;;;;;0.13;0.13;;;20.60;94.30;;;;;;5020394;28;20430;-76
2023/05/10 06:13:51;;;;;;;0.00;0.00;;;21.60;90.60;;;;;;5004499;28;20021;-76
2023/05/10 06:16:17;;;;;;;0.30;0.30;;;22.50;84.60;;;;;;5023706;28;20037;-76
2023/05/10 06:18:48;;;;;;;0.00;0.00;;;22.40;81.40;;;;;;5017908;28;20102;-77
2023/05/10 06:21:14;;;;;;;0.22;0.05;;;22.70;80.50;;;;;;5020166;28;20033;-76
2023/05/10 06:23:41;;;;;;;0.00;0.00;;;22.70;77.20;;;;;;4997548;28;20424;-77
2023/05/10 06:26:10;;;;;;;0.00;0.00;;;22.60;76.90;;;;;;5021175;28;20026;-76
2023/05/10 06:28:38;;;;;;;0.10;0.00;;;23.40;75.00;;;;;;5018565;28;20017;-76
2023/05/10 06:31:04;;;;;;;0.00;0.00;;;21.90;75.30;;;;;;5017536;28;20056;-76
2023/05/10 06:33:34;;;;;;;0.00;0.00;;;21.90;75.50;;;;;;5004535;28;20460;-76
2023/05/10 06:35:59;;;;;;;0.00;0.00;;;22.10;75.30;;;;;;5024934;28;20095;-76
2023/05/10 06:38:26;;;;;;;0.00;0.00;;;23.00;73.00;;;;;;5022810;28;20033;-76
2023/05/10 06:40:52;;;;;;;0.00;0.00;;;22.80;70.00;;;;;;5020386;28;20117;-77
2023/05/10 06:43:18;;;;;;;0.00;0.00;;;22.90;69.60;;;;;;5007848;28;20105;-77
2023/05/10 06:45:43;;;;;;;0.00;0.00;;;23.30;68.90;;;;;;5019233;28;20037;-76
2023/05/10 06:48:10;;;;;;;0.00;0.00;;;23.50;67.30;;;;;;5025054;28;20474;-77
2023/05/10 06:50:36;;;;;;;0.00;0.00;;;24.20;66.30;;;;;;5003904;28;20088;-77
2023/05/10 06:53:03;;;;;;;0.17;0.17;;;24.20;65.60;;;;;;5018756;28;20025;-76
2023/05/10 06:55:31;;;;;;;0.00;0.00;;;24.70;64.60;;;;;;5022059;28;20033;-76
2023/05/10 06:57:57;;;;;;;0.00;0.00;;;24.50;64.20;;;;;;5018406;28;20100;-76
2023/05/10 07:00:23;;;;;;;0.00;0.00;;;24.90;64.10;;;;;;5020816;28;20112;-76
2023/05/10 07:02:51;;;;;;;0.00;0.00;;;24.20;63.70;;;;;;5015708;28;20033;-77
2023/05/10 07:05:17;;;;;;;0.10;0.10;;;23.80;64.30;;;;;;5022163;28;20028;-76
2023/05/10 07:07:43;;;;;;;0.30;0.10;;;24.50;63.40;;;;;;5017747;28;20026;-76
2023/05/10 07:10:09;;;;;;;0.00;0.00;;;25.40;62.40;;;;;;5019673;28;20061;-77
2023/05/10 07:12:36;;;;;;;0.15;0.10;;;24.90;61.80;;;;;;5016684;28;20025;-77
2023/05/10 07:15:02;;;;;;;0.00;0.00;;;24.90;61.00;;;;;;5004030;28;20025;-76
2023/05/10 07:17:33;;;;;;;0.25;0.25;;;24.50;61.70;;;;;;5013741;28;20656;-76
2023/05/10 07:20:00;;;;;;;0.00;0.00;;;24.20;61.30;;;;;;5004198;28;20108;-77
2023/05/10 07:22:28;;;;;;;0.00;0.00;;;25.00;61.90;;;;;;5023010;28;20703;-76
2023/05/10 07:24:54;;;;;;;0.00;0.00;;;25.30;60.80;;;;;;5017900;28;20030;-77
2023/05/10 07:27:22;;;;;;;0.00;0.00;;;26.20;60.30;;;;;;5018420;28;20021;-77
2023/05/10 07:29:48;;;;;;;0.00;0.00;;;26.90;58.10;;;;;;5019692;28;20037;-77
2023/05/10 07:32:14;;;;;;;0.00;0.00;;;26.40;58.80;;;;;;5019779;28;20036;-77
2023/05/10 07:34:41;;;;;;;0.00;0.00;;;27.30;58.20;;;;;;5024399;28;20013;-74
2023/05/10 07:37:08;;;;;;;0.40;0.03;;;28.10;57.20;;;;;;5018382;28;20029;-77
2023/05/10 07:39:37;;;;;;;0.00;0.00;;;28.20;57.00;;;;;;5002282;28;20094;-76
2023/05/10 07:42:03;;;;;;;0.00;0.00;;;27.80;56.50;;;;;;5007004;28;20056;-76
2023/05/10 07:44:29;;;;;;;0.00;0.00;;;26.40;56.50;;;;;;5015137;28;20041;-75
2023/05/10 07:46:55;;;;;;;;;;;27.10;55.60;;;;;;5001839;28;20034;-77
2023/05/10 07:49:24;;;;;;;0.00;0.00;;;26.70;56.60;;;;;;5003101;28;20486;-76
2023/05/10 07:51:52;;;;;;;0.00;0.00;;;27.70;56.70;;;;;;5023480;28;20800;-76
2023/05/10 07:54:19;;;;;;;0.38;0.20;;;26.90;56.30;;;;;;5012941;28;20022;-76
2023/05/10 07:56:49;;;;;;;0.00;0.00;;;26.70;57.80;;;;;;5018934;28;20057;-77
2023/05/10 07:59:17;;;;;;;0.00;0.00;;;26.00;58.10;;;;;;5013829;28;20021;-76
2023/05/10 08:01:45;;;;;;;0.43;0.05;;;26.00;57.30;;;;;;5025456;28;20037;-76
2023/05/10 08:04:11;;;;;;;0.00;0.00;;;26.50;57.90;;;;;;5017065;28;20025;-77
2023/05/10 08:06:37;;;;;;;0.73;0.32;;;26.50;57.90;;;;;;5019732;28;20053;-77
2023/05/10 08:09:04;;;;;;;0.00;0.00;;;26.10;60.00;;;;;;5017721;28;20107;-76
2023/05/10 08:11:32;;;;;;;0.00;0.00;;;26.30;59.00;;;;;;5016148;28;20025;-76
2023/05/10 08:13:58;;;;;;;0.45;0.10;;;27.00;58.60;;;;;;5016741;28;20025;-77
2023/05/10 08:16:26;;;;;;;0.00;0.00;;;27.50;57.80;;;;;;4999121;28;20026;-77
2023/05/10 08:18:57;;;;;;;0.00;0.00;;;27.90;57.00;;;;;;5016644;28;20151;-78
2023/05/10 08:21:25;;;;;;;0.00;0.00;;;28.40;56.00;;;;;;5022291;28;20942;-77
2023/05/10 08:23:52;;;;;;;0.00;0.00;;;26.70;56.90;;;;;;5012882;28;20022;-76
2023/05/10 08:26:20;;;;;;;0.00;0.00;;;25.30;58.50;;;;;;5017611;28;20118;-75
2023/05/10 08:28:46;;;;;;;0.00;0.00;;;23.10;62.50;;;;;;5013367;28;20543;-76
2023/05/10 08:31:12;;;;;;;0.00;0.00;;;22.00;64.80;;;;;;5019561;28;20017;-75
2023/05/10 08:33:43;;;;;;;1.25;0.40;;;21.20;65.80;;;;;;5016128;28;20104;-76
2023/05/10 08:36:19;;;;;;;0.00;0.00;;;20.50;68.40;;;;;;5023077;28;20352;-76
2023/05/10 08:38:51;;;;;;;0.00;0.00;;;21.40;67.70;;;;;;5018880;28;20702;-76
2023/05/10 08:41:25;;;;;;;0.00;0.00;;;21.80;66.00;;;;;;5018276;28;20024;-76
2023/05/10 08:43:54;;;;;;;0.30;0.30;;;22.00;65.10;;;;;;4999102;28;20336;-76
2023/05/10 08:46:22;;;;;;;0.00;0.00;;;22.00;64.80;;;;;;4998849;28;20643;-77
2023/05/10 08:48:51;;;;;;;0.43;0.13;;;22.80;64.20;;;;;;5018627;28;20051;-77
2023/05/10 08:51:19;;;;;;;1.75;0.10;;;24.10;61.30;;;;;;5019162;28;20091;-77
2023/05/10 08:53:46;;;;;;;0.00;0.00;;;24.10;61.00;;;;;;5019386;28;20017;-78
2023/05/10 08:56:15;;;;;;;0.00;0.00;;;24.70;61.40;;;;;;5023025;28;20036;-77
2023/05/10 08:58:44;;;;;;;0.05;0.05;;;25.70;60.30;;;;;;5021445;28;20068;-77
2023/05/10 09:01:12;;;;;;;0.10;0.10;;;25.10;59.90;;;;;;5022070;28;20052;-76
2023/05/10 09:03:43;;;;;;;0.00;0.00;;;22.80;63.80;;;;;;5018554;28;20021;-76
2023/05/10 09:06:13;;;;;;;0.00;0.00;;;21.70;66.50;;;;;;5005898;28;20021;-76
2023/05/10 09:08:45;;;;;;;0.00;0.00;;;21.20;68.20;;;;;;5019726;28;20018;-77
2023/05/10 09:11:12;;;;;;;0.00;0.00;;;21.40;68.70;;;;;;5004408;28;20033;-77
2023/05/10 09:13:50;;;;;;;0.00;0.00;;;22.00;68.10;;;;;;5020725;28;20096;-78
2023/05/10 09:16:17;;;;;;;0.05;0.05;;;21.40;68.30;;;;;;5020481;28;20108;-78
2023/05/10 09:18:47;;;;;;;0.00;0.00;;;21.00;68.90;;;;;;5005141;28;20025;-78
2023/05/10 09:21:15;;;;;;;0.00;0.00;;;21.10;68.20;;;;;;5007097;28;20026;-79
2023/05/10 09:23:46;;;;;;;0.00;0.00;;;21.10;69.00;;;;;;5020024;28;20112;-78
2023/05/10 09:26:12;;;;;;;0.00;0.00;;;21.00;67.90;;;;;;4999683;28;20030;-79
2023/05/10 09:28:55;;;;;;;0.10;0.10;;;20.80;69.40;;;;;;5021138;28;20025;-78
2023/05/10 09:31:21;;;;;;;0.00;0.00;;;21.30;69.10;;;;;;5022439;28;20530;-79
2023/05/10 09:33:50;;;;;;;0.00;0.00;;;22.80;65.20;;;;;;5021046;28;20033;-78
2023/05/10 09:36:17;;;;;;;0.00;0.00;;;24.00;62.80;;;;;;5017809;28;20045;-79
2023/05/10 09:38:54;;;;;;;0.00;0.00;;;25.10;62.60;;;;;;5026136;28;20112;-79
2023/05/10 09:41:35;;;;;;;0.17;0.10;;;26.90;59.80;;;;;;5020467;28;20053;-78
2023/05/10 09:44:17;;;;;;;0.00;0.00;;;26.30;58.80;;;;;;5020581;28;20041;-79
2023/05/10 09:46:54;;;;;;;0.52;0.52;;;24.70;60.20;;;;;;4999853;28;20132;-79
2023/05/10 09:49:21;;;;;;;0.00;0.00;;;24.20;62.30;;;;;;5018576;28;20057;-78
2023/05/10 09:52:20;;;;;;;0.00;0.00;;;22.60;62.80;;;;;;5020533;28;20108;-79
2023/05/10 09:54:53;;;;;;;0.00;0.00;;;21.70;64.90;;;;;;4972625;28;20121;-78
2023/05/10 09:57:21;;;;;;;0.00;0.00;;;22.90;64.90;;;;;;5022080;28;20076;-82
2023/05/10 09:59:48;;;;;;;0.00;0.00;;;23.60;63.30;;;;;;5020958;28;20474;-81
2023/05/10 10:02:27;;;;;;;1.02;0.20;;;25.00;61.50;;;;;;5021314;28;20382;-80
2023/05/10 10:04:53;;;;;;;0.00;0.00;;;25.30;59.60;;;;;;5015992;28;20760;-81
2023/05/10 10:07:26;;;;;;;0.00;0.00;;;25.20;61.10;;;;;;5022107;28;20071;-82
2023/05/10 10:09:55;;;;;;;0.00;0.00;;;26.40;58.50;;;;;;5003569;28;20117;-82
2023/05/10 10:12:30;;;;;;;0.00;0.00;;;27.20;58.70;;;;;;5020795;28;20056;-81
2023/05/10 10:14:56;;;;;;;0.00;0.00;;;27.50;56.90;;;;;;5021695;28;20040;-81
2023/05/10 10:17:30;;;;;;;;;;;27.40;56.70;;;;;;5021337;28;20471;-82
2023/05/10 10:19:58;;;;;;;0.00;0.00;;;26.80;57.30;;;;;;5028506;28;19935;-81
2023/05/10 10:22:26;;;;;;;0.00;0.00;;;25.50;58.90;;;;;;5005910;28;20112;-82
2023/05/10 10:24:55;;;;;;;0.00;0.00;;;26.10;58.00;;;;;;5019500;28;20503;-82
2023/05/10 10:27:45;;;;;;;0.00;0.00;;;26.20;57.90;;;;;;5021357;28;20013;-82
2023/05/10 10:30:10;;;;;;;0.00;0.00;;;26.60;56.90;;;;;;5021898;28;20091;-81
2023/05/10 10:33:07;;;;;;;0.00;0.00;;;25.60;56.70;;;;;;5024036;28;20045;-82
2023/05/10 10:35:47;;;;;;;0.00;0.00;;;26.20;57.30;;;;;;5024464;28;20021;-81
2023/05/10 10:38:59;;;;;;;0.00;0.00;;;25.40;59.50;;;;;;5006905;28;20659;-82
2023/05/10 10:41:58;;;;;;;0.00;0.00;;;25.10;57.80;;;;;;4998621;28;20111;-81
2023/05/10 10:44:36;;;;;;;0.00;0.00;;;26.70;57.00;;;;;;5015072;28;20041;-82
2023/05/10 10:47:24;;;;;;;0.00;0.00;;;26.40;55.30;;;;;;5001452;28;20509;-82
2023/05/10 10:50:05;;;;;;;0.00;0.00;;;25.10;56.70;;;;;;5020120;28;20033;-81
2023/05/10 10:52:46;;;;;;;0.00;0.00;;;23.30;60.50;;;;;;5001576;28;20021;-81
2023/05/10 10:55:26;;;;;;;0.00;0.00;;;23.90;60.20;;;;;;5015841;28;20067;-82
2023/05/10 10:58:04;;;;;;;0.00;0.00;;;23.30;59.40;;;;;;5025652;28;20064;-83
2023/05/10 11:00:37;;;;;;;0.00;0.00;;;21.90;61.50;;;;;;5021259;28;20024;-82
2023/05/10 11:03:18;;;;;;;0.00;0.00;;;21.00;64.00;;;;;;5015959;28;20048;-81
2023/05/10 11:05:48;;;;;;;0.00;0.00;;;21.00;65.10;;;;;;5024935;28;20398;-82
2023/05/10 11:08:26;;;;;;;0.08;0.08;;;20.90;64.10;;;;;;5021249;28;20561;-80
2023/05/10 11:11:08;;;;;;;0.00;0.00;;;20.80;64.40;;;;;;5020262;28;20025;-81
2023/05/10 11:13:38;;;;;;;0.55;0.55;;;20.60;65.00;;;;;;5017987;28;20021;-80
2023/05/10 11:16:24;;;;;;;0.40;0.10;;;20.70;65.90;;;;;;5015859;28;20022;-82
2023/05/10 11:19:09;;;;;;;0.00;0.00;;;21.00;66.70;;;;;;5018577;28;20036;-82
2023/05/10 11:21:45;;;;;;;0.22;0.22;;;20.90;66.50;;;;;;5017139;28;20053;-81
2023/05/10 11:24:27;;;;;;;0.00;0.00;;;20.70;67.00;;;;;;5016509;28;20028;-81
2023/05/10 11:26:53;;;;;;;0.00;0.00;;;20.70;67.00;;;;;;5018842;28;20044;-82
2023/05/10 11:29:26;;;;;;;0.00;0.00;;;20.70;68.20;;;;;;5008306;28;20025;-82
2023/05/10 11:31:59;;;;;;;0.15;0.15;;;20.50;67.70;;;;;;5020874;28;20021;-81
2023/05/10 11:34:34;;;;;;;0.03;0.03;;;19.80;69.30;;;;;;5023237;28;20051;-81
2023/05/10 11:37:07;;;;;;;0.00;0.00;;;19.70;70.40;;;;;;5022549;28;20021;-81
2023/05/10 11:39:33;;;;;;;0.00;0.00;;;20.00;70.30;;;;;;5024029;28;20026;-83
2023/05/10 11:42:05;;;;;;;0.00;0.00;;;20.30;70.80;;;;;;5017997;28;20071;-81
2023/05/10 11:44:31;;;;;;;0.00;0.00;;;20.30;70.40;;;;;;5003254;28;20064;-80
2023/05/10 11:47:03;;;;;;;0.00;0.00;;;20.20;68.40;;;;;;5022047;28;20423;-81
2023/05/10 11:49:34;;;;;;;0.10;0.05;;;20.30;68.80;;;;;;5023450;28;20108;-80
2023/05/10 11:52:12;;;;;;;0.00;0.00;;;20.10;69.10;;;;;;5015539;28;20022;-80
2023/05/10 11:55:00;;;;;;;0.00;0.00;;;20.30;68.70;;;;;;4999311;28;20367;-79
2023/05/10 11:57:28;;;;;;;0.00;0.00;;;19.80;69.30;;;;;;5002477;28;20034;-80
2023/05/10 11:59:56;;;;;;;0.00;0.00;;;19.70;69.70;;;;;;5018469;28;20029;-81
2023/05/10 12:02:24;;;;;;;0.00;0.00;;;19.80;68.40;;;;;;5024597;28;20122;-81
2023/05/10 12:04:51;;;;;;;0.00;0.00;;;20.10;67.90;;;;;;5019117;28;20116;-80
2023/05/10 12:07:26;;;;;;;0.00;0.00;;;20.10;68.70;;;;;;5018350;28;20511;-82
2023/05/10 12:10:19;;;;;;;0.00;0.00;;;20.00;68.40;;;;;;5018377;28;20048;-77
2023/05/10 12:12:47;;;;;;;0.08;0.08;;;20.10;69.50;;;;;;5021535;28;20870;-75
2023/05/10 12:15:24;;;;;;;0.00;0.00;;;19.70;69.80;;;;;;5021737;28;20021;-75
2023/05/10 12:17:51;;;;;;;0.00;0.00;;;19.60;69.30;;;;;;5017883;28;20502;-76
2023/05/10 12:20:24;;;;;;;0.10;0.10;;;19.60;69.40;;;;;;5018032;28;20096;-76
2023/05/10 12:22:58;;;;;;;0.10;0.10;;;19.80;69.60;;;;;;5017825;28;20057;-76
2023/05/10 12:25:29;;;;;;;0.10;0.00;;;19.40;70.10;;;;;;5018635;28;20025;-74
2023/05/10 12:28:00;;;;;;;0.00;0.00;;;19.50;70.50;;;;;;5014927;28;20025;-76
2023/05/10 12:30:28;;;;;;;0.00;0.00;;;19.90;69.30;;;;;;5021422;28;20076;-76
2023/05/10 12:32:58;;;;;;;0.00;0.00;;;19.90;68.00;;;;;;5023193;28;20021;-75
2023/05/10 12:35:31;;;;;;;0.00;0.00;;;19.90;69.50;;;;;;5025290;28;20491;-76
2023/05/10 12:37:56;;;;;;;0.00;0.00;;;19.80;69.50;;;;;;5000984;28;20037;-75
2023/05/10 12:40:22;;;;;;;0.00;0.00;;;19.90;70.40;;;;;;5022684;28;20029;-76
2023/05/10 12:42:54;;;;;;;0.00;0.00;;;20.00;69.10;;;;;;5021530;28;20045;-75
2023/05/10 12:45:21;;;;;;;0.00;0.00;;;19.80;69.20;;;;;;5021913;28;20077;-75
2023/05/10 12:47:49;;;;;;;0.00;0.00;;;19.80;68.60;;;;;;5021145;28;20180;-75
2023/05/10 12:50:16;;;;;;;0.00;0.00;;;19.90;68.10;;;;;;5021503;28;20017;-75
2023/05/10 12:52:41;;;;;;;0.00;0.00;;;19.70;67.60;;;;;;5021047;28;20026;-77
2023/05/10 12:55:07;;;;;;;0.00;0.00;;;20.10;68.00;;;;;;5021008;28;20028;-76
2023/05/10 12:57:33;;;;;;;0.00;0.00;;;20.20;67.60;;;;;;5023043;28;20028;-76
2023/05/10 13:00:06;;;;;;;0.00;0.00;;;20.00;67.20;;;;;;5022985;28;20025;-76
2023/05/10 13:02:32;;;;;;;0.00;0.00;;;19.90;68.30;;;;;;5018772;28;20433;-76
2023/05/10 13:04:58;;;;;;;0.10;0.00;;;20.00;68.00;;;;;;5003773;28;20113;-75
2023/05/10 13:07:24;;;;;;;0.00;0.00;;;20.10;68.50;;;;;;5009407;28;20026;-76
2023/05/10 13:09:50;;;;;;;0.00;0.00;;;20.30;67.90;;;;;;5020541;28;20049;-75
2023/05/10 13:12:18;;;;;;;0.00;0.00;;;20.40;68.50;;;;;;5020545;28;20056;-76
2023/05/10 13:14:45;;;;;;;0.00;0.00;;;20.40;68.70;;;;;;5025662;28;20203;-75